sensor_id;sensor_type;location;lat;lon;timestamp;temperature;humidity
8114;DHT22;4099;52.684;9.918;2023-04-07T00:00:57;4.20;94.50
8114;DHT22;4099;52.684;9.918;2023-04-07T00:05:59;4.00;95.20
8114;DHT22;4099;52.684;9.918;2023-04-07T00:11:02;3.90;96.30
8114;DHT22;4099;52.684;9.918;2023-04-07T00:16:04;3.90;96.40
8114;DHT22;4099;52.684;9.918;2023-04-07T00:21:05;3.80;97.00
8114;DHT22;4099;52.684;9.918;2023-04-07T00:26:08;3.60;97.70
8114;DHT22;4099;52.684;9.918;2023-04-07T00:31:11;3.80;97.60
8114;DHT22;4099;52.684;9.918;2023-04-07T00:36:13;3.60;97.70
8114;DHT22;4099;52.684;9.918;2023-04-07T00:41:16;3.50;98.60
8114;DHT22;4099;52.684;9.918;2023-04-07T00:46:21;3.30;99.40
8114;DHT22;4099;52.684;9.918;2023-04-07T00:51:23;3.10;99.90
8114;DHT22;4099;52.684;9.918;2023-04-07T00:56:28;2.80;99.90
8114;DHT22;4099;52.684;9.918;2023-04-07T01:01:31;2.60;99.90
8114;DHT22;4099;52.684;9.918;2023-04-07T01:06:39;2.40;99.90
8114;DHT22;4099;52.684;9.918;2023-04-07T01:11:54;2.30;99.90
8114;DHT22;4099;52.684;9.918;2023-04-07T01:17:00;2.20;99.90
8114;DHT22;4099;52.684;9.918;2023-04-07T01:22:13;2.10;99.90
8114;DHT22;4099;52.684;9.918;2023-04-07T01:27:22;2.10;99.90
8114;DHT22;4099;52.684;9.918;2023-04-07T01:32:28;2.00;99.90
8114;DHT22;4099;52.684;9.918;2023-04-07T01:37:31;1.70;99.90
8114;DHT22;4099;52.684;9.918;2023-04-07T01:42:35;1.70;99.90
8114;DHT22;4099;52.684;9.918;2023-04-07T01:47:40;1.40;99.90
8114;DHT22;4099;52.684;9.918;2023-04-07T01:52:42;1.30;99.90
8114;DHT22;4099;52.684;9.918;2023-04-07T01:57:44;1.30;99.90
8114;DHT22;4099;52.684;9.918;2023-04-07T02:02:58;1.30;99.90
8114;DHT22;4099;52.684;9.918;2023-04-07T02:08:04;1.20;99.90
8114;DHT22;4099;52.684;9.918;2023-04-07T02:13:26;1.10;99.90
8114;DHT22;4099;52.684;9.918;2023-04-07T02:18:31;0.90;99.90
8114;DHT22;4099;52.684;9.918;2023-04-07T02:23:34;1.00;99.90
8114;DHT22;4099;52.684;9.918;2023-04-07T02:28:36;0.90;99.90
8114;DHT22;4099;52.684;9.918;2023-04-07T02:33:39;1.00;99.90
8114;DHT22;4099;52.684;9.918;2023-04-07T02:38:40;0.80;99.90
8114;DHT22;4099;52.684;9.918;2023-04-07T02:43:42;0.70;99.90
8114;DHT22;4099;52.684;9.918;2023-04-07T02:48:45;0.70;99.90
8114;DHT22;4099;52.684;9.918;2023-04-07T02:53:47;0.70;99.90
8114;DHT22;4099;52.684;9.918;2023-04-07T02:58:48;0.70;99.90
8114;DHT22;4099;52.684;9.918;2023-04-07T03:03:55;0.70;99.90
8114;DHT22;4099;52.684;9.918;2023-04-07T03:08:59;0.80;99.90
8114;DHT22;4099;52.684;9.918;2023-04-07T03:14:01;0.80;99.90
8114;DHT22;4099;52.684;9.918;2023-04-07T03:19:06;0.90;99.90
8114;DHT22;4099;52.684;9.918;2023-04-07T03:24:11;1.10;99.90
8114;DHT22;4099;52.684;9.918;2023-04-07T03:29:13;1.20;99.90
8114;DHT22;4099;52.684;9.918;2023-04-07T03:34:18;1.20;99.90
8114;DHT22;4099;52.684;9.918;2023-04-07T03:39:20;1.30;99.90
8114;DHT22;4099;52.684;9.918;2023-04-07T03:44:25;1.20;99.90
8114;DHT22;4099;52.684;9.918;2023-04-07T03:49:28;1.30;99.90
8114;DHT22;4099;52.684;9.918;2023-04-07T03:54:33;1.40;99.90
8114;DHT22;4099;52.684;9.918;2023-04-07T03:59:36;1.50;99.90
8114;DHT22;4099;52.684;9.918;2023-04-07T04:04:41;1.50;99.90
8114;DHT22;4099;52.684;9.918;2023-04-07T04:09:44;1.40;99.90
8114;DHT22;4099;52.684;9.918;2023-04-07T04:14:46;1.30;99.90
8114;DHT22;4099;52.684;9.918;2023-04-07T04:19:51;1.30;99.90
8114;DHT22;4099;52.684;9.918;2023-04-07T04:24:59;1.30;99.90
8114;DHT22;4099;52.684;9.918;2023-04-07T04:30:03;1.40;99.90
8114;DHT22;4099;52.684;9.918;2023-04-07T04:35:12;1.40;99.90
8114;DHT22;4099;52.684;9.918;2023-04-07T04:40:24;1.30;99.90
8114;DHT22;4099;52.684;9.918;2023-04-07T04:45:26;1.30;99.90
8114;DHT22;4099;52.684;9.918;2023-04-07T04:50:30;1.40;99.90
8114;DHT22;4099;52.684;9.918;2023-04-07T04:55:33;1.40;99.90
8114;DHT22;4099;52.684;9.918;2023-04-07T05:00:36;1.50;99.90
8114;DHT22;4099;52.684;9.918;2023-04-07T05:05:46;1.50;99.90
8114;DHT22;4099;52.684;9.918;2023-04-07T05:10:49;1.40;99.90
8114;DHT22;4099;52.684;9.918;2023-04-07T05:15:55;1.50;99.90
8114;DHT22;4099;52.684;9.918;2023-04-07T05:20:58;1.70;99.90
8114;DHT22;4099;52.684;9.918;2023-04-07T05:26:01;1.80;99.90
8114;DHT22;4099;52.684;9.918;2023-04-07T05:31:04;1.80;99.90
8114;DHT22;4099;52.684;9.918;2023-04-07T05:36:08;1.80;99.90
8114;DHT22;4099;52.684;9.918;2023-04-07T05:41:10;1.80;99.90
8114;DHT22;4099;52.684;9.918;2023-04-07T05:46:12;2.10;99.90
8114;DHT22;4099;52.684;9.918;2023-04-07T05:51:23;2.40;99.90
8114;DHT22;4099;52.684;9.918;2023-04-07T05:56:27;2.70;99.90
8114;DHT22;4099;52.684;9.918;2023-04-07T06:01:29;2.90;99.90
8114;DHT22;4099;52.684;9.918;2023-04-07T06:06:33;3.10;99.90
8114;DHT22;4099;52.684;9.918;2023-04-07T06:11:36;3.20;99.90
8114;DHT22;4099;52.684;9.918;2023-04-07T06:16:37;3.50;99.90
8114;DHT22;4099;52.684;9.918;2023-04-07T06:21:41;3.70;99.90
8114;DHT22;4099;52.684;9.918;2023-04-07T06:26:44;3.90;98.70
8114;DHT22;4099;52.684;9.918;2023-04-07T06:31:46;4.00;99.30
8114;DHT22;4099;52.684;9.918;2023-04-07T06:36:49;4.10;98.00
8114;DHT22;4099;52.684;9.918;2023-04-07T06:41:51;4.30;97.40
8114;DHT22;4099;52.684;9.918;2023-04-07T06:46:53;4.40;96.10
8114;DHT22;4099;52.684;9.918;2023-04-07T06:51:56;4.40;96.40
8114;DHT22;4099;52.684;9.918;2023-04-07T06:56:58;4.60;95.90
8114;DHT22;4099;52.684;9.918;2023-04-07T07:02:01;4.50;95.60
8114;DHT22;4099;52.684;9.918;2023-04-07T07:07:04;4.60;95.30
8114;DHT22;4099;52.684;9.918;2023-04-07T07:12:06;4.50;96.40
8114;DHT22;4099;52.684;9.918;2023-04-07T07:17:08;4.60;96.30
8114;DHT22;4099;52.684;9.918;2023-04-07T07:22:11;4.80;95.60
8114;DHT22;4099;52.684;9.918;2023-04-07T07:27:12;5.10;94.90
8114;DHT22;4099;52.684;9.918;2023-04-07T07:32:14;5.50;95.60
8114;DHT22;4099;52.684;9.918;2023-04-07T07:37:17;5.90;94.00
8114;DHT22;4099;52.684;9.918;2023-04-07T07:42:19;6.40;94.00
8114;DHT22;4099;52.684;9.918;2023-04-07T07:47:21;7.20;93.00
8114;DHT22;4099;52.684;9.918;2023-04-07T07:52:24;7.80;90.70
8114;DHT22;4099;52.684;9.918;2023-04-07T07:57:26;8.50;88.90
8114;DHT22;4099;52.684;9.918;2023-04-07T08:02:30;9.10;90.40
8114;DHT22;4099;52.684;9.918;2023-04-07T08:07:34;9.50;88.60
8114;DHT22;4099;52.684;9.918;2023-04-07T08:12:37;9.80;86.60
8114;DHT22;4099;52.684;9.918;2023-04-07T08:17:39;10.10;82.00
8114;DHT22;4099;52.684;9.918;2023-04-07T08:22:42;10.20;83.70
8114;DHT22;4099;52.684;9.918;2023-04-07T08:27:44;10.30;79.00
8114;DHT22;4099;52.684;9.918;2023-04-07T08:32:48;10.50;81.50
8114;DHT22;4099;52.684;9.918;2023-04-07T08:37:52;11.10;79.60
8114;DHT22;4099;52.684;9.918;2023-04-07T08:42:54;11.50;79.60
8114;DHT22;4099;52.684;9.918;2023-04-07T08:47:58;11.60;75.30
8114;DHT22;4099;52.684;9.918;2023-04-07T08:53:04;12.00;75.20
8114;DHT22;4099;52.684;9.918;2023-04-07T08:58:10;12.30;74.60
8114;DHT22;4099;52.684;9.918;2023-04-07T09:03:14;12.60;72.10
8114;DHT22;4099;52.684;9.918;2023-04-07T09:08:17;12.80;70.30
8114;DHT22;4099;52.684;9.918;2023-04-07T09:13:19;12.90;70.90
8114;DHT22;4099;52.684;9.918;2023-04-07T09:18:21;13.10;68.10
8114;DHT22;4099;52.684;9.918;2023-04-07T09:23:32;13.00;65.60
8114;DHT22;4099;52.684;9.918;2023-04-07T09:28:41;12.90;65.20
8114;DHT22;4099;52.684;9.918;2023-04-07T09:33:43;13.20;68.10
8114;DHT22;4099;52.684;9.918;2023-04-07T09:38:49;13.50;66.80
8114;DHT22;4099;52.684;9.918;2023-04-07T09:43:55;13.50;63.90
8114;DHT22;4099;52.684;9.918;2023-04-07T09:49:01;13.80;62.80
8114;DHT22;4099;52.684;9.918;2023-04-07T09:54:06;13.80;62.50
8114;DHT22;4099;52.684;9.918;2023-04-07T09:59:09;13.50;62.80
8114;DHT22;4099;52.684;9.918;2023-04-07T10:04:11;13.70;61.90
8114;DHT22;4099;52.684;9.918;2023-04-07T10:09:15;13.90;59.70
8114;DHT22;4099;52.684;9.918;2023-04-07T10:14:17;14.20;61.80
8114;DHT22;4099;52.684;9.918;2023-04-07T10:19:20;14.50;60.50
8114;DHT22;4099;52.684;9.918;2023-04-07T10:24:32;14.40;60.30
8114;DHT22;4099;52.684;9.918;2023-04-07T10:29:41;13.90;59.70
8114;DHT22;4099;52.684;9.918;2023-04-07T10:34:59;14.50;58.90
8114;DHT22;4099;52.684;9.918;2023-04-07T10:40:28;15.10;57.90
8114;DHT22;4099;52.684;9.918;2023-04-07T10:45:51;15.50;57.70
8114;DHT22;4099;52.684;9.918;2023-04-07T10:51:16;15.60;57.50
8114;DHT22;4099;52.684;9.918;2023-04-07T10:56:19;15.50;56.30
8114;DHT22;4099;52.684;9.918;2023-04-07T11:01:21;15.60;54.80
8114;DHT22;4099;52.684;9.918;2023-04-07T11:06:23;15.50;54.60
8114;DHT22;4099;52.684;9.918;2023-04-07T11:11:38;15.50;55.60
8114;DHT22;4099;52.684;9.918;2023-04-07T11:16:42;15.40;55.80
8114;DHT22;4099;52.684;9.918;2023-04-07T11:21:45;15.60;54.80
8114;DHT22;4099;52.684;9.918;2023-04-07T11:26:48;16.10;56.20
8114;DHT22;4099;52.684;9.918;2023-04-07T11:31:50;16.40;56.40
8114;DHT22;4099;52.684;9.918;2023-04-07T11:36:54;16.50;59.60
8114;DHT22;4099;52.684;9.918;2023-04-07T11:42:00;16.60;54.30
8114;DHT22;4099;52.684;9.918;2023-04-07T11:47:02;16.40;54.30
8114;DHT22;4099;52.684;9.918;2023-04-07T11:52:05;16.30;51.80
8114;DHT22;4099;52.684;9.918;2023-04-07T11:57:12;16.30;52.40
8114;DHT22;4099;52.684;9.918;2023-04-07T12:02:31;16.90;54.40
8114;DHT22;4099;52.684;9.918;2023-04-07T12:07:34;17.30;54.00
8114;DHT22;4099;52.684;9.918;2023-04-07T12:12:38;17.00;52.20
8114;DHT22;4099;52.684;9.918;2023-04-07T12:17:43;17.30;50.60
8114;DHT22;4099;52.684;9.918;2023-04-07T12:22:46;17.30;50.20
8114;DHT22;4099;52.684;9.918;2023-04-07T12:27:49;17.00;47.60
8114;DHT22;4099;52.684;9.918;2023-04-07T12:32:51;17.30;47.70
8114;DHT22;4099;52.684;9.918;2023-04-07T12:37:53;18.00;49.70
8114;DHT22;4099;52.684;9.918;2023-04-07T12:42:57;18.70;49.90
8114;DHT22;4099;52.684;9.918;2023-04-07T12:47:59;19.60;46.10
8114;DHT22;4099;52.684;9.918;2023-04-07T12:53:01;19.40;45.40
8114;DHT22;4099;52.684;9.918;2023-04-07T12:58:06;20.60;44.50
8114;DHT22;4099;52.684;9.918;2023-04-07T13:03:08;19.80;40.10
8114;DHT22;4099;52.684;9.918;2023-04-07T13:08:10;21.00;43.50
8114;DHT22;4099;52.684;9.918;2023-04-07T13:13:14;20.70;41.00
8114;DHT22;4099;52.684;9.918;2023-04-07T13:18:16;21.40;36.80
8114;DHT22;4099;52.684;9.918;2023-04-07T13:23:17;21.90;37.40
8114;DHT22;4099;52.684;9.918;2023-04-07T13:28:20;23.60;35.10
8114;DHT22;4099;52.684;9.918;2023-04-07T13:33:22;23.10;32.20
8114;DHT22;4099;52.684;9.918;2023-04-07T13:38:24;24.30;32.40
8114;DHT22;4099;52.684;9.918;2023-04-07T13:43:27;25.00;27.80
8114;DHT22;4099;52.684;9.918;2023-04-07T13:48:29;25.20;29.50
8114;DHT22;4099;52.684;9.918;2023-04-07T13:53:33;24.50;26.60
8114;DHT22;4099;52.684;9.918;2023-04-07T13:58:37;24.50;25.30
8114;DHT22;4099;52.684;9.918;2023-04-07T14:03:38;25.60;24.70
8114;DHT22;4099;52.684;9.918;2023-04-07T14:08:40;25.30;21.60
8114;DHT22;4099;52.684;9.918;2023-04-07T14:13:44;24.60;23.60
8114;DHT22;4099;52.684;9.918;2023-04-07T14:18:46;25.90;21.80
8114;DHT22;4099;52.684;9.918;2023-04-07T14:23:49;27.30;22.30
8114;DHT22;4099;52.684;9.918;2023-04-07T14:28:52;27.40;21.40
8114;DHT22;4099;52.684;9.918;2023-04-07T14:33:54;28.50;20.10
8114;DHT22;4099;52.684;9.918;2023-04-07T14:38:56;27.00;19.20
8114;DHT22;4099;52.684;9.918;2023-04-07T14:43:59;25.00;20.60
8114;DHT22;4099;52.684;9.918;2023-04-07T14:49:01;22.30;19.60
8114;DHT22;4099;52.684;9.918;2023-04-07T14:54:03;19.40;20.10
8114;DHT22;4099;52.684;9.918;2023-04-07T14:59:06;17.90;22.50
8114;DHT22;4099;52.684;9.918;2023-04-07T15:04:10;17.30;22.70
8114;DHT22;4099;52.684;9.918;2023-04-07T15:09:12;16.60;24.50
8114;DHT22;4099;52.684;9.918;2023-04-07T15:14:16;16.40;24.10
8114;DHT22;4099;52.684;9.918;2023-04-07T15:19:17;16.30;25.90
8114;DHT22;4099;52.684;9.918;2023-04-07T15:24:19;16.70;24.50
8114;DHT22;4099;52.684;9.918;2023-04-07T15:29:23;16.30;25.50
8114;DHT22;4099;52.684;9.918;2023-04-07T15:34:24;16.20;24.60
8114;DHT22;4099;52.684;9.918;2023-04-07T15:39:26;15.40;25.90
8114;DHT22;4099;52.684;9.918;2023-04-07T15:44:29;15.00;25.20
8114;DHT22;4099;52.684;9.918;2023-04-07T15:49:38;15.20;28.50
8114;DHT22;4099;52.684;9.918;2023-04-07T15:54:41;17.30;26.80
8114;DHT22;4099;52.684;9.918;2023-04-07T15:59:44;16.90;25.40
8114;DHT22;4099;52.684;9.918;2023-04-07T16:04:46;15.90;26.00
8114;DHT22;4099;52.684;9.918;2023-04-07T16:09:48;16.00;29.30
8114;DHT22;4099;52.684;9.918;2023-04-07T16:14:51;16.40;26.70
8114;DHT22;4099;52.684;9.918;2023-04-07T16:19:53;18.00;26.20
8114;DHT22;4099;52.684;9.918;2023-04-07T16:24:55;19.90;24.00
8114;DHT22;4099;52.684;9.918;2023-04-07T16:29:58;19.80;23.70
8114;DHT22;4099;52.684;9.918;2023-04-07T16:35:00;20.40;24.10
8114;DHT22;4099;52.684;9.918;2023-04-07T16:40:01;19.20;25.60
8114;DHT22;4099;52.684;9.918;2023-04-07T16:45:06;18.80;23.60
8114;DHT22;4099;52.684;9.918;2023-04-07T16:50:08;17.50;24.10
8114;DHT22;4099;52.684;9.918;2023-04-07T16:55:10;16.20;25.20
8114;DHT22;4099;52.684;9.918;2023-04-07T17:00:14;15.30;25.40
8114;DHT22;4099;52.684;9.918;2023-04-07T17:05:16;14.30;27.60
8114;DHT22;4099;52.684;9.918;2023-04-07T17:10:18;13.30;29.70
8114;DHT22;4099;52.684;9.918;2023-04-07T17:15:22;12.60;31.30
8114;DHT22;4099;52.684;9.918;2023-04-07T17:20:24;12.00;33.50
8114;DHT22;4099;52.684;9.918;2023-04-07T17:25:26;11.90;34.90
8114;DHT22;4099;52.684;9.918;2023-04-07T17:30:29;11.40;35.50
8114;DHT22;4099;52.684;9.918;2023-04-07T17:35:31;10.90;36.70
8114;DHT22;4099;52.684;9.918;2023-04-07T17:40:33;10.80;38.20
8114;DHT22;4099;52.684;9.918;2023-04-07T17:45:36;10.60;39.20
8114;DHT22;4099;52.684;9.918;2023-04-07T17:50:38;10.40;40.60
8114;DHT22;4099;52.684;9.918;2023-04-07T17:55:40;10.20;40.90
8114;DHT22;4099;52.684;9.918;2023-04-07T18:00:43;10.00;41.70
8114;DHT22;4099;52.684;9.918;2023-04-07T18:05:45;10.00;42.90
8114;DHT22;4099;52.684;9.918;2023-04-07T18:10:48;9.90;44.80
8114;DHT22;4099;52.684;9.918;2023-04-07T18:15:52;9.70;45.60
8114;DHT22;4099;52.684;9.918;2023-04-07T18:20:53;9.70;46.50
8114;DHT22;4099;52.684;9.918;2023-04-07T18:25:57;9.40;48.40
8114;DHT22;4099;52.684;9.918;2023-04-07T18:31:01;9.30;50.00
8114;DHT22;4099;52.684;9.918;2023-04-07T18:36:04;9.10;53.30
8114;DHT22;4099;52.684;9.918;2023-04-07T18:41:07;8.80;55.90
8114;DHT22;4099;52.684;9.918;2023-04-07T18:46:10;8.60;60.20
8114;DHT22;4099;52.684;9.918;2023-04-07T18:51:12;8.40;65.50
8114;DHT22;4099;52.684;9.918;2023-04-07T18:56:14;8.10;74.10
8114;DHT22;4099;52.684;9.918;2023-04-07T19:01:17;8.10;82.90
8114;DHT22;4099;52.684;9.918;2023-04-07T19:06:19;7.90;92.00
8114;DHT22;4099;52.684;9.918;2023-04-07T19:11:21;7.80;95.00
8114;DHT22;4099;52.684;9.918;2023-04-07T19:16:27;7.80;97.80
8114;DHT22;4099;52.684;9.918;2023-04-07T19:21:28;7.80;99.90
8114;DHT22;4099;52.684;9.918;2023-04-07T19:26:30;7.60;99.90
8114;DHT22;4099;52.684;9.918;2023-04-07T19:31:34;7.40;99.90
8114;DHT22;4099;52.684;9.918;2023-04-07T19:36:36;7.50;99.90
8114;DHT22;4099;52.684;9.918;2023-04-07T19:41:38;7.30;99.90
8114;DHT22;4099;52.684;9.918;2023-04-07T19:46:41;7.40;99.90
8114;DHT22;4099;52.684;9.918;2023-04-07T19:51:43;7.40;99.90
8114;DHT22;4099;52.684;9.918;2023-04-07T19:56:44;7.50;99.90
8114;DHT22;4099;52.684;9.918;2023-04-07T20:01:49;7.40;99.90
8114;DHT22;4099;52.684;9.918;2023-04-07T20:06:51;7.40;99.90
8114;DHT22;4099;52.684;9.918;2023-04-07T20:11:53;7.20;99.90
8114;DHT22;4099;52.684;9.918;2023-04-07T20:16:58;7.00;99.90
8114;DHT22;4099;52.684;9.918;2023-04-07T20:21:59;6.90;99.90
8114;DHT22;4099;52.684;9.918;2023-04-07T20:27:01;6.90;99.90
8114;DHT22;4099;52.684;9.918;2023-04-07T20:32:04;6.70;99.90
8114;DHT22;4099;52.684;9.918;2023-04-07T20:37:06;6.50;99.90
8114;DHT22;4099;52.684;9.918;2023-04-07T20:42:08;6.50;94.90
8114;DHT22;4099;52.684;9.918;2023-04-07T20:47:12;6.20;97.00
8114;DHT22;4099;52.684;9.918;2023-04-07T20:52:14;6.20;98.40
8114;DHT22;4099;52.684;9.918;2023-04-07T20:57:16;6.30;98.10
8114;DHT22;4099;52.684;9.918;2023-04-07T21:02:19;6.40;97.20
8114;DHT22;4099;52.684;9.918;2023-04-07T21:07:20;6.30;97.50
8114;DHT22;4099;52.684;9.918;2023-04-07T21:12:22;6.20;1.00
8114;DHT22;4099;52.684;9.918;2023-04-07T21:17:25;6.30;1.00
8114;DHT22;4099;52.684;9.918;2023-04-07T21:22:27;6.30;1.00
8114;DHT22;4099;52.684;9.918;2023-04-07T21:27:29;6.40;1.00
8114;DHT22;4099;52.684;9.918;2023-04-07T21:32:32;6.40;1.00
8114;DHT22;4099;52.684;9.918;2023-04-07T21:37:34;6.50;1.00
8114;DHT22;4099;52.684;9.918;2023-04-07T21:42:36;6.50;1.00
8114;DHT22;4099;52.684;9.918;2023-04-07T21:47:39;6.40;1.00
8114;DHT22;4099;52.684;9.918;2023-04-07T21:52:41;6.40;1.00
8114;DHT22;4099;52.684;9.918;2023-04-07T21:57:42;6.30;1.00
8114;DHT22;4099;52.684;9.918;2023-04-07T22:02:46;6.30;1.00
8114;DHT22;4099;52.684;9.918;2023-04-07T22:07:47;6.40;1.00
8114;DHT22;4099;52.684;9.918;2023-04-07T22:12:49;6.50;1.00
8114;DHT22;4099;52.684;9.918;2023-04-07T22:17:52;6.60;1.00
8114;DHT22;4099;52.684;9.918;2023-04-07T22:22:54;6.70;99.90
8114;DHT22;4099;52.684;9.918;2023-04-07T22:27:56;6.70;99.90
8114;DHT22;4099;52.684;9.918;2023-04-07T22:33:00;6.80;1.00
8114;DHT22;4099;52.684;9.918;2023-04-07T22:38:01;6.60;1.00
8114;DHT22;4099;52.684;9.918;2023-04-07T22:43:03;6.50;1.00
8114;DHT22;4099;52.684;9.918;2023-04-07T22:48:06;6.50;1.00
8114;DHT22;4099;52.684;9.918;2023-04-07T22:53:08;6.50;1.00
8114;DHT22;4099;52.684;9.918;2023-04-07T22:58:10;6.60;1.00
8114;DHT22;4099;52.684;9.918;2023-04-07T23:03:13;6.60;1.00
8114;DHT22;4099;52.684;9.918;2023-04-07T23:08:15;6.70;1.00
8114;DHT22;4099;52.684;9.918;2023-04-07T23:13:17;6.50;1.00
8114;DHT22;4099;52.684;9.918;2023-04-07T23:18:20;6.40;1.00
8114;DHT22;4099;52.684;9.918;2023-04-07T23:23:22;6.30;1.00
8114;DHT22;4099;52.684;9.918;2023-04-07T23:28:23;6.20;1.00
8114;DHT22;4099;52.684;9.918;2023-04-07T23:33:29;6.20;1.00
8114;DHT22;4099;52.684;9.918;2023-04-07T23:38:31;6.30;1.00
8114;DHT22;4099;52.684;9.918;2023-04-07T23:43:33;6.20;1.00
8114;DHT22;4099;52.684;9.918;2023-04-07T23:48:36;6.20;1.00
8114;DHT22;4099;52.684;9.918;2023-04-07T23:53:38;6.30;1.00
8114;DHT22;4099;52.684;9.918;2023-04-07T23:58:40;6.30;1.00
